sensor_id;sensor_type;location;lat;lon;timestamp;temperature;humidity
30764;DHT22;17497;51.476;7.770;2022-10-31T00:00:46;13.00;99.90
30764;DHT22;17497;51.476;7.770;2022-10-31T00:03:13;13.10;99.90
30764;DHT22;17497;51.476;7.770;2022-10-31T00:05:45;13.10;99.90
30764;DHT22;17497;51.476;7.770;2022-10-31T00:08:12;13.10;99.90
30764;DHT22;17497;51.476;7.770;2022-10-31T00:10:40;13.10;99.90
30764;DHT22;17497;51.476;7.770;2022-10-31T00:13:07;13.00;99.90
30764;DHT22;17497;51.476;7.770;2022-10-31T00:15:35;12.90;99.90
30764;DHT22;17497;51.476;7.770;2022-10-31T00:18:03;12.90;99.90
30764;DHT22;17497;51.476;7.770;2022-10-31T00:20:30;12.80;99.90
30764;DHT22;17497;51.476;7.770;2022-10-31T00:22:58;12.90;99.90
30764;DHT22;17497;51.476;7.770;2022-10-31T00:25:25;13.00;99.90
30764;DHT22;17497;51.476;7.770;2022-10-31T00:27:52;13.00;99.90
30764;DHT22;17497;51.476;7.770;2022-10-31T00:30:19;12.90;99.90
30764;DHT22;17497;51.476;7.770;2022-10-31T00:32:46;12.80;99.90
30764;DHT22;17497;51.476;7.770;2022-10-31T00:37:46;12.80;99.90
30764;DHT22;17497;51.476;7.770;2022-10-31T00:40:13;12.80;99.90
30764;DHT22;17497;51.476;7.770;2022-10-31T00:42:40;12.80;99.90
30764;DHT22;17497;51.476;7.770;2022-10-31T00:45:10;12.80;99.90
30764;DHT22;17497;51.476;7.770;2022-10-31T00:47:37;12.80;99.90
30764;DHT22;17497;51.476;7.770;2022-10-31T00:50:05;12.90;99.90
30764;DHT22;17497;51.476;7.770;2022-10-31T00:52:32;12.90;99.90
30764;DHT22;17497;51.476;7.770;2022-10-31T00:54:58;13.00;99.90
30764;DHT22;17497;51.476;7.770;2022-10-31T00:57:25;13.00;99.90
30764;DHT22;17497;51.476;7.770;2022-10-31T00:59:52;13.00;99.90
30764;DHT22;17497;51.476;7.770;2022-10-31T01:02:18;13.00;99.90
30764;DHT22;17497;51.476;7.770;2022-10-31T01:04:45;13.10;99.90
30764;DHT22;17497;51.476;7.770;2022-10-31T01:07:12;13.20;99.90
30764;DHT22;17497;51.476;7.770;2022-10-31T01:09:40;13.30;99.90
30764;DHT22;17497;51.476;7.770;2022-10-31T01:12:07;13.30;99.90
30764;DHT22;17497;51.476;7.770;2022-10-31T01:14:33;13.30;99.90
30764;DHT22;17497;51.476;7.770;2022-10-31T01:17:00;13.30;99.90
30764;DHT22;17497;51.476;7.770;2022-10-31T01:19:27;13.20;99.90
30764;DHT22;17497;51.476;7.770;2022-10-31T01:21:54;13.20;99.90
30764;DHT22;17497;51.476;7.770;2022-10-31T01:24:21;13.10;99.90
30764;DHT22;17497;51.476;7.770;2022-10-31T01:26:48;13.10;99.90
30764;DHT22;17497;51.476;7.770;2022-10-31T01:29:15;13.10;99.90
30764;DHT22;17497;51.476;7.770;2022-10-31T01:31:41;13.10;99.90
30764;DHT22;17497;51.476;7.770;2022-10-31T01:34:12;13.20;99.90
30764;DHT22;17497;51.476;7.770;2022-10-31T01:36:40;13.20;99.90
30764;DHT22;17497;51.476;7.770;2022-10-31T01:39:10;13.20;99.90
30764;DHT22;17497;51.476;7.770;2022-10-31T01:41:43;13.30;99.90
30764;DHT22;17497;51.476;7.770;2022-10-31T01:49:24;13.30;99.90
30764;DHT22;17497;51.476;7.770;2022-10-31T01:51:58;13.30;99.90
30764;DHT22;17497;51.476;7.770;2022-10-31T01:54:35;13.40;99.90
30764;DHT22;17497;51.476;7.770;2022-10-31T01:57:04;13.40;99.90
30764;DHT22;17497;51.476;7.770;2022-10-31T01:59:34;13.50;99.90
30764;DHT22;17497;51.476;7.770;2022-10-31T02:02:03;13.40;99.90
30764;DHT22;17497;51.476;7.770;2022-10-31T02:04:30;13.20;99.90
30764;DHT22;17497;51.476;7.770;2022-10-31T02:07:03;13.10;99.90
30764;DHT22;17497;51.476;7.770;2022-10-31T02:09:31;13.00;99.90
30764;DHT22;17497;51.476;7.770;2022-10-31T02:12:00;12.80;99.90
30764;DHT22;17497;51.476;7.770;2022-10-31T02:14:29;12.70;99.90
30764;DHT22;17497;51.476;7.770;2022-10-31T02:16:57;12.70;99.90
30764;DHT22;17497;51.476;7.770;2022-10-31T02:19:30;12.60;99.90
30764;DHT22;17497;51.476;7.770;2022-10-31T02:28:11;12.80;99.90
30764;DHT22;17497;51.476;7.770;2022-10-31T02:33:20;12.90;99.90
30764;DHT22;17497;51.476;7.770;2022-10-31T02:36:09;12.90;99.90
30764;DHT22;17497;51.476;7.770;2022-10-31T02:38:46;13.00;99.90
30764;DHT22;17497;51.476;7.770;2022-10-31T02:41:33;13.10;99.90
30764;DHT22;17497;51.476;7.770;2022-10-31T02:44:40;13.10;99.90
30764;DHT22;17497;51.476;7.770;2022-10-31T02:47:18;13.20;99.90
30764;DHT22;17497;51.476;7.770;2022-10-31T02:49:56;13.10;99.90
30764;DHT22;17497;51.476;7.770;2022-10-31T02:52:31;13.10;99.90
30764;DHT22;17497;51.476;7.770;2022-10-31T02:54:58;13.10;99.90
30764;DHT22;17497;51.476;7.770;2022-10-31T02:57:30;13.10;99.90
30764;DHT22;17497;51.476;7.770;2022-10-31T03:00:01;13.00;99.90
30764;DHT22;17497;51.476;7.770;2022-10-31T03:02:43;13.00;99.90
30764;DHT22;17497;51.476;7.770;2022-10-31T03:08:22;12.80;99.90
30764;DHT22;17497;51.476;7.770;2022-10-31T03:10:59;12.80;99.90
30764;DHT22;17497;51.476;7.770;2022-10-31T03:19:00;12.60;99.90
30764;DHT22;17497;51.476;7.770;2022-10-31T03:24:08;12.60;99.90
30764;DHT22;17497;51.476;7.770;2022-10-31T03:26:39;12.60;99.90
30764;DHT22;17497;51.476;7.770;2022-10-31T03:29:10;12.60;99.90
30764;DHT22;17497;51.476;7.770;2022-10-31T03:31:45;12.60;99.90
30764;DHT22;17497;51.476;7.770;2022-10-31T03:34:14;12.50;99.90
30764;DHT22;17497;51.476;7.770;2022-10-31T03:36:43;12.30;99.90
30764;DHT22;17497;51.476;7.770;2022-10-31T03:39:14;12.30;99.90
30764;DHT22;17497;51.476;7.770;2022-10-31T03:41:45;12.30;99.90
30764;DHT22;17497;51.476;7.770;2022-10-31T03:44:21;12.20;99.90
30764;DHT22;17497;51.476;7.770;2022-10-31T03:46:48;12.20;99.90
30764;DHT22;17497;51.476;7.770;2022-10-31T03:49:16;12.10;99.90
30764;DHT22;17497;51.476;7.770;2022-10-31T03:54:40;12.20;99.90
30764;DHT22;17497;51.476;7.770;2022-10-31T03:57:29;12.20;99.90
30764;DHT22;17497;51.476;7.770;2022-10-31T04:00:08;12.40;99.90
30764;DHT22;17497;51.476;7.770;2022-10-31T04:02:40;12.50;99.90
30764;DHT22;17497;51.476;7.770;2022-10-31T04:05:09;12.60;99.90
30764;DHT22;17497;51.476;7.770;2022-10-31T04:07:42;12.60;99.90
30764;DHT22;17497;51.476;7.770;2022-10-31T04:10:13;12.70;99.90
30764;DHT22;17497;51.476;7.770;2022-10-31T04:12:43;12.80;99.90
30764;DHT22;17497;51.476;7.770;2022-10-31T04:15:11;12.90;99.90
30764;DHT22;17497;51.476;7.770;2022-10-31T04:17:40;12.90;99.90
30764;DHT22;17497;51.476;7.770;2022-10-31T04:20:09;13.00;99.90
30764;DHT22;17497;51.476;7.770;2022-10-31T04:22:35;13.10;99.90
30764;DHT22;17497;51.476;7.770;2022-10-31T04:25:02;13.00;99.90
30764;DHT22;17497;51.476;7.770;2022-10-31T04:27:29;13.00;99.90
30764;DHT22;17497;51.476;7.770;2022-10-31T04:29:55;13.00;99.90
30764;DHT22;17497;51.476;7.770;2022-10-31T04:32:22;13.00;99.90
30764;DHT22;17497;51.476;7.770;2022-10-31T04:34:49;13.00;99.90
30764;DHT22;17497;51.476;7.770;2022-10-31T04:37:15;13.00;99.90
30764;DHT22;17497;51.476;7.770;2022-10-31T04:39:42;12.90;99.90
30764;DHT22;17497;51.476;7.770;2022-10-31T04:42:09;12.90;99.90
30764;DHT22;17497;51.476;7.770;2022-10-31T04:44:35;12.80;99.90
30764;DHT22;17497;51.476;7.770;2022-10-31T04:47:02;12.80;99.90
30764;DHT22;17497;51.476;7.770;2022-10-31T04:49:29;12.70;99.90
30764;DHT22;17497;51.476;7.770;2022-10-31T04:51:55;12.60;99.90
30764;DHT22;17497;51.476;7.770;2022-10-31T04:54:22;12.60;99.90
30764;DHT22;17497;51.476;7.770;2022-10-31T04:56:49;12.60;99.90
30764;DHT22;17497;51.476;7.770;2022-10-31T04:59:15;12.60;99.90
30764;DHT22;17497;51.476;7.770;2022-10-31T05:01:42;12.50;99.90
30764;DHT22;17497;51.476;7.770;2022-10-31T05:04:09;12.50;99.90
30764;DHT22;17497;51.476;7.770;2022-10-31T05:06:36;12.50;99.90
30764;DHT22;17497;51.476;7.770;2022-10-31T05:09:03;12.50;99.90
30764;DHT22;17497;51.476;7.770;2022-10-31T05:11:29;12.50;99.90
30764;DHT22;17497;51.476;7.770;2022-10-31T05:13:56;12.40;99.90
30764;DHT22;17497;51.476;7.770;2022-10-31T05:16:23;12.40;99.90
30764;DHT22;17497;51.476;7.770;2022-10-31T05:18:49;12.50;99.90
30764;DHT22;17497;51.476;7.770;2022-10-31T05:21:16;12.40;99.90
30764;DHT22;17497;51.476;7.770;2022-10-31T05:23:43;12.40;99.90
30764;DHT22;17497;51.476;7.770;2022-10-31T05:26:14;12.40;99.90
30764;DHT22;17497;51.476;7.770;2022-10-31T05:28:40;12.30;99.90
30764;DHT22;17497;51.476;7.770;2022-10-31T05:31:07;12.30;99.90
30764;DHT22;17497;51.476;7.770;2022-10-31T05:33:34;12.30;99.90
30764;DHT22;17497;51.476;7.770;2022-10-31T05:36:01;12.30;99.90
30764;DHT22;17497;51.476;7.770;2022-10-31T05:38:28;12.30;99.90
30764;DHT22;17497;51.476;7.770;2022-10-31T05:40:55;12.20;99.90
30764;DHT22;17497;51.476;7.770;2022-10-31T05:43:29;12.20;99.90
30764;DHT22;17497;51.476;7.770;2022-10-31T05:45:56;12.20;99.90
30764;DHT22;17497;51.476;7.770;2022-10-31T05:48:23;12.20;99.90
30764;DHT22;17497;51.476;7.770;2022-10-31T05:50:49;12.20;99.90
30764;DHT22;17497;51.476;7.770;2022-10-31T05:53:16;12.20;99.90
30764;DHT22;17497;51.476;7.770;2022-10-31T05:55:43;12.20;99.90
30764;DHT22;17497;51.476;7.770;2022-10-31T05:58:10;12.30;99.90
30764;DHT22;17497;51.476;7.770;2022-10-31T06:00:37;12.30;99.90
30764;DHT22;17497;51.476;7.770;2022-10-31T06:03:06;12.20;99.90
30764;DHT22;17497;51.476;7.770;2022-10-31T06:05:34;12.30;99.90
30764;DHT22;17497;51.476;7.770;2022-10-31T06:08:01;12.30;99.90
30764;DHT22;17497;51.476;7.770;2022-10-31T06:10:29;12.30;99.90
30764;DHT22;17497;51.476;7.770;2022-10-31T06:12:55;12.30;99.90
30764;DHT22;17497;51.476;7.770;2022-10-31T06:15:22;12.30;99.90
30764;DHT22;17497;51.476;7.770;2022-10-31T06:18:01;12.20;99.90
30764;DHT22;17497;51.476;7.770;2022-10-31T06:20:29;12.30;99.90
30764;DHT22;17497;51.476;7.770;2022-10-31T06:22:56;12.30;99.90
30764;DHT22;17497;51.476;7.770;2022-10-31T06:25:23;12.30;99.90
30764;DHT22;17497;51.476;7.770;2022-10-31T06:27:50;12.30;99.90
30764;DHT22;17497;51.476;7.770;2022-10-31T06:30:17;12.30;99.90
30764;DHT22;17497;51.476;7.770;2022-10-31T06:32:43;12.30;99.90
30764;DHT22;17497;51.476;7.770;2022-10-31T06:35:10;12.20;99.90
30764;DHT22;17497;51.476;7.770;2022-10-31T06:37:37;12.30;99.90
30764;DHT22;17497;51.476;7.770;2022-10-31T06:40:04;12.20;99.90
30764;DHT22;17497;51.476;7.770;2022-10-31T06:42:31;12.20;99.90
30764;DHT22;17497;51.476;7.770;2022-10-31T06:44:58;12.20;99.90
30764;DHT22;17497;51.476;7.770;2022-10-31T06:47:24;12.20;99.90
30764;DHT22;17497;51.476;7.770;2022-10-31T06:49:51;12.20;99.90
30764;DHT22;17497;51.476;7.770;2022-10-31T06:52:18;12.20;99.90
30764;DHT22;17497;51.476;7.770;2022-10-31T06:54:44;12.20;99.90
30764;DHT22;17497;51.476;7.770;2022-10-31T06:57:11;12.20;99.90
30764;DHT22;17497;51.476;7.770;2022-10-31T06:59:38;12.30;99.90
30764;DHT22;17497;51.476;7.770;2022-10-31T07:02:05;12.40;99.90
30764;DHT22;17497;51.476;7.770;2022-10-31T07:04:31;12.40;99.90
30764;DHT22;17497;51.476;7.770;2022-10-31T07:06:58;12.40;99.90
30764;DHT22;17497;51.476;7.770;2022-10-31T07:09:25;12.50;99.90
30764;DHT22;17497;51.476;7.770;2022-10-31T07:11:52;12.50;99.90
30764;DHT22;17497;51.476;7.770;2022-10-31T07:14:19;12.50;99.90
30764;DHT22;17497;51.476;7.770;2022-10-31T07:16:50;12.50;99.90
30764;DHT22;17497;51.476;7.770;2022-10-31T07:19:17;12.50;99.90
30764;DHT22;17497;51.476;7.770;2022-10-31T07:21:44;12.50;99.90
30764;DHT22;17497;51.476;7.770;2022-10-31T07:24:11;12.60;99.90
30764;DHT22;17497;51.476;7.770;2022-10-31T07:26:37;12.60;99.90
30764;DHT22;17497;51.476;7.770;2022-10-31T07:29:04;12.70;99.90
30764;DHT22;17497;51.476;7.770;2022-10-31T07:31:31;12.70;99.90
30764;DHT22;17497;51.476;7.770;2022-10-31T07:33:58;12.80;99.90
30764;DHT22;17497;51.476;7.770;2022-10-31T07:36:24;12.80;99.90
30764;DHT22;17497;51.476;7.770;2022-10-31T07:38:51;12.80;99.90
30764;DHT22;17497;51.476;7.770;2022-10-31T07:41:18;12.80;99.90
30764;DHT22;17497;51.476;7.770;2022-10-31T07:43:45;12.90;99.90
30764;DHT22;17497;51.476;7.770;2022-10-31T07:46:12;12.90;99.90
30764;DHT22;17497;51.476;7.770;2022-10-31T07:48:38;13.00;99.90
30764;DHT22;17497;51.476;7.770;2022-10-31T07:51:05;13.10;99.90
30764;DHT22;17497;51.476;7.770;2022-10-31T07:53:33;13.00;99.90
30764;DHT22;17497;51.476;7.770;2022-10-31T07:56:00;13.00;99.90
30764;DHT22;17497;51.476;7.770;2022-10-31T07:58:26;13.00;99.90
30764;DHT22;17497;51.476;7.770;2022-10-31T08:00:53;13.00;99.90
30764;DHT22;17497;51.476;7.770;2022-10-31T08:03:20;13.10;99.90
30764;DHT22;17497;51.476;7.770;2022-10-31T08:05:47;13.20;99.90
30764;DHT22;17497;51.476;7.770;2022-10-31T08:08:14;13.20;99.90
30764;DHT22;17497;51.476;7.770;2022-10-31T08:10:41;13.20;99.90
30764;DHT22;17497;51.476;7.770;2022-10-31T08:13:13;13.30;99.90
30764;DHT22;17497;51.476;7.770;2022-10-31T08:15:40;13.30;99.90
30764;DHT22;17497;51.476;7.770;2022-10-31T08:18:12;13.40;99.90
30764;DHT22;17497;51.476;7.770;2022-10-31T08:20:40;13.50;99.90
30764;DHT22;17497;51.476;7.770;2022-10-31T08:23:08;13.50;99.90
30764;DHT22;17497;51.476;7.770;2022-10-31T08:25:36;13.40;99.90
30764;DHT22;17497;51.476;7.770;2022-10-31T08:28:05;13.50;99.90
30764;DHT22;17497;51.476;7.770;2022-10-31T08:30:35;13.40;99.90
30764;DHT22;17497;51.476;7.770;2022-10-31T08:33:11;13.50;99.90
30764;DHT22;17497;51.476;7.770;2022-10-31T08:35:38;13.50;99.90
30764;DHT22;17497;51.476;7.770;2022-10-31T08:38:05;13.60;99.90
30764;DHT22;17497;51.476;7.770;2022-10-31T08:40:33;13.60;99.90
30764;DHT22;17497;51.476;7.770;2022-10-31T08:43:02;13.60;99.90
30764;DHT22;17497;51.476;7.770;2022-10-31T08:45:30;13.70;99.90
30764;DHT22;17497;51.476;7.770;2022-10-31T08:48:03;13.70;99.90
30764;DHT22;17497;51.476;7.770;2022-10-31T08:50:32;13.80;99.90
30764;DHT22;17497;51.476;7.770;2022-10-31T08:53:04;13.90;99.90
30764;DHT22;17497;51.476;7.770;2022-10-31T08:55:36;14.00;99.90
30764;DHT22;17497;51.476;7.770;2022-10-31T08:58:05;14.10;99.90
30764;DHT22;17497;51.476;7.770;2022-10-31T09:00:34;14.10;99.90
30764;DHT22;17497;51.476;7.770;2022-10-31T09:03:03;14.10;99.90
30764;DHT22;17497;51.476;7.770;2022-10-31T09:05:31;14.20;99.90
30764;DHT22;17497;51.476;7.770;2022-10-31T09:07:59;14.30;99.90
30764;DHT22;17497;51.476;7.770;2022-10-31T09:10:27;14.30;99.90
30764;DHT22;17497;51.476;7.770;2022-10-31T09:13:05;14.40;99.90
30764;DHT22;17497;51.476;7.770;2022-10-31T09:15:37;14.50;99.90
30764;DHT22;17497;51.476;7.770;2022-10-31T09:18:08;14.60;99.90
30764;DHT22;17497;51.476;7.770;2022-10-31T09:20:40;14.80;99.90
30764;DHT22;17497;51.476;7.770;2022-10-31T09:23:16;14.90;99.90
30764;DHT22;17497;51.476;7.770;2022-10-31T09:25:44;15.00;99.90
30764;DHT22;17497;51.476;7.770;2022-10-31T09:28:18;15.10;99.90
30764;DHT22;17497;51.476;7.770;2022-10-31T09:30:50;15.20;99.90
30764;DHT22;17497;51.476;7.770;2022-10-31T09:33:18;15.40;99.90
30764;DHT22;17497;51.476;7.770;2022-10-31T09:35:45;15.50;99.90
30764;DHT22;17497;51.476;7.770;2022-10-31T09:38:14;15.60;99.90
30764;DHT22;17497;51.476;7.770;2022-10-31T09:40:44;15.70;99.90
30764;DHT22;17497;51.476;7.770;2022-10-31T09:51:00;16.40;99.90
30764;DHT22;17497;51.476;7.770;2022-10-31T09:53:32;16.60;99.90
30764;DHT22;17497;51.476;7.770;2022-10-31T09:56:14;16.70;99.90
30764;DHT22;17497;51.476;7.770;2022-10-31T09:58:51;16.70;99.90
30764;DHT22;17497;51.476;7.770;2022-10-31T10:01:46;16.60;99.90
30764;DHT22;17497;51.476;7.770;2022-10-31T10:04:20;16.60;99.90
30764;DHT22;17497;51.476;7.770;2022-10-31T10:06:52;16.60;99.90
30764;DHT22;17497;51.476;7.770;2022-10-31T10:09:24;16.70;99.90
30764;DHT22;17497;51.476;7.770;2022-10-31T10:15:18;16.80;99.90
30764;DHT22;17497;51.476;7.770;2022-10-31T10:17:52;16.90;99.90
30764;DHT22;17497;51.476;7.770;2022-10-31T10:20:44;17.00;99.90
30764;DHT22;17497;51.476;7.770;2022-10-31T10:25:54;17.20;99.90
30764;DHT22;17497;51.476;7.770;2022-10-31T10:28:30;17.30;99.90
30764;DHT22;17497;51.476;7.770;2022-10-31T10:34:06;17.20;99.90
30764;DHT22;17497;51.476;7.770;2022-10-31T10:36:54;17.30;99.90
30764;DHT22;17497;51.476;7.770;2022-10-31T10:39:29;17.30;99.90
30764;DHT22;17497;51.476;7.770;2022-10-31T10:41:58;17.30;99.90
30764;DHT22;17497;51.476;7.770;2022-10-31T10:44:46;17.30;99.90
30764;DHT22;17497;51.476;7.770;2022-10-31T10:47:39;17.40;99.90
30764;DHT22;17497;51.476;7.770;2022-10-31T10:50:22;17.40;99.90
30764;DHT22;17497;51.476;7.770;2022-10-31T10:56:01;17.60;99.90
30764;DHT22;17497;51.476;7.770;2022-10-31T10:58:29;17.60;99.90
30764;DHT22;17497;51.476;7.770;2022-10-31T11:00:56;17.70;99.90
30764;DHT22;17497;51.476;7.770;2022-10-31T11:03:23;17.80;99.90
30764;DHT22;17497;51.476;7.770;2022-10-31T11:05:55;17.80;99.90
30764;DHT22;17497;51.476;7.770;2022-10-31T11:08:33;18.00;99.90
30764;DHT22;17497;51.476;7.770;2022-10-31T11:11:31;18.30;99.90
30764;DHT22;17497;51.476;7.770;2022-10-31T11:14:18;18.60;99.90
30764;DHT22;17497;51.476;7.770;2022-10-31T11:16:49;19.00;99.90
30764;DHT22;17497;51.476;7.770;2022-10-31T11:19:18;19.40;99.90
30764;DHT22;17497;51.476;7.770;2022-10-31T11:21:46;19.70;99.90
30764;DHT22;17497;51.476;7.770;2022-10-31T11:24:27;19.90;99.90
30764;DHT22;17497;51.476;7.770;2022-10-31T11:27:15;20.20;99.90
30764;DHT22;17497;51.476;7.770;2022-10-31T11:29:42;20.60;99.90
30764;DHT22;17497;51.476;7.770;2022-10-31T11:34:45;21.20;99.90
30764;DHT22;17497;51.476;7.770;2022-10-31T11:37:16;21.60;99.90
30764;DHT22;17497;51.476;7.770;2022-10-31T11:39:46;21.80;99.90
30764;DHT22;17497;51.476;7.770;2022-10-31T11:42:22;21.70;99.90
30764;DHT22;17497;51.476;7.770;2022-10-31T11:44:51;21.70;99.90
30764;DHT22;17497;51.476;7.770;2022-10-31T11:47:27;21.60;99.90
30764;DHT22;17497;51.476;7.770;2022-10-31T11:49:56;21.80;99.90
30764;DHT22;17497;51.476;7.770;2022-10-31T11:52:27;21.70;99.90
30764;DHT22;17497;51.476;7.770;2022-10-31T11:54:58;21.90;99.90
30764;DHT22;17497;51.476;7.770;2022-10-31T11:57:52;21.80;99.90
30764;DHT22;17497;51.476;7.770;2022-10-31T12:00:40;21.90;99.90
30764;DHT22;17497;51.476;7.770;2022-10-31T12:06:03;21.60;99.90
30764;DHT22;17497;51.476;7.770;2022-10-31T12:08:35;21.50;99.90
30764;DHT22;17497;51.476;7.770;2022-10-31T12:16:59;20.80;99.90
30764;DHT22;17497;51.476;7.770;2022-10-31T12:30:46;21.50;99.90
30764;DHT22;17497;51.476;7.770;2022-10-31T12:33:20;21.90;99.90
30764;DHT22;17497;51.476;7.770;2022-10-31T12:39:02;22.10;99.90
30764;DHT22;17497;51.476;7.770;2022-10-31T12:41:47;22.30;99.90
30764;DHT22;17497;51.476;7.770;2022-10-31T12:52:47;22.00;99.90
30764;DHT22;17497;51.476;7.770;2022-10-31T12:55:35;21.80;99.90
30764;DHT22;17497;51.476;7.770;2022-10-31T12:58:11;21.70;99.90
30764;DHT22;17497;51.476;7.770;2022-10-31T13:00:44;21.80;99.90
30764;DHT22;17497;51.476;7.770;2022-10-31T13:03:21;21.70;99.90
30764;DHT22;17497;51.476;7.770;2022-10-31T13:05:53;21.60;99.90
30764;DHT22;17497;51.476;7.770;2022-10-31T13:08:28;21.40;99.90
30764;DHT22;17497;51.476;7.770;2022-10-31T13:14:11;21.30;99.90
30764;DHT22;17497;51.476;7.770;2022-10-31T13:16:47;21.30;99.90
30764;DHT22;17497;51.476;7.770;2022-10-31T13:19:34;21.30;99.90
30764;DHT22;17497;51.476;7.770;2022-10-31T13:22:06;21.20;99.90
30764;DHT22;17497;51.476;7.770;2022-10-31T13:27:25;21.30;99.90
30764;DHT22;17497;51.476;7.770;2022-10-31T13:30:03;21.20;99.90
30764;DHT22;17497;51.476;7.770;2022-10-31T13:32:50;21.10;99.90
30764;DHT22;17497;51.476;7.770;2022-10-31T13:41:04;20.80;99.90
30764;DHT22;17497;51.476;7.770;2022-10-31T13:46:35;20.80;99.90
30764;DHT22;17497;51.476;7.770;2022-10-31T13:49:03;20.70;99.90
30764;DHT22;17497;51.476;7.770;2022-10-31T13:51:34;20.60;99.90
30764;DHT22;17497;51.476;7.770;2022-10-31T13:54:19;20.50;99.90
30764;DHT22;17497;51.476;7.770;2022-10-31T13:56:49;20.50;99.90
30764;DHT22;17497;51.476;7.770;2022-10-31T13:59:22;20.40;99.90
30764;DHT22;17497;51.476;7.770;2022-10-31T14:04:45;20.40;99.90
30764;DHT22;17497;51.476;7.770;2022-10-31T14:07:15;20.30;99.90
30764;DHT22;17497;51.476;7.770;2022-10-31T14:12:36;20.00;99.90
30764;DHT22;17497;51.476;7.770;2022-10-31T14:15:25;19.90;99.90
30764;DHT22;17497;51.476;7.770;2022-10-31T14:17:57;19.80;99.90
30764;DHT22;17497;51.476;7.770;2022-10-31T14:20:43;19.80;99.90
30764;DHT22;17497;51.476;7.770;2022-10-31T14:28:50;19.70;99.90
30764;DHT22;17497;51.476;7.770;2022-10-31T14:31:37;19.70;99.90
30764;DHT22;17497;51.476;7.770;2022-10-31T14:39:37;19.70;99.90
30764;DHT22;17497;51.476;7.770;2022-10-31T14:45:04;19.80;99.90
30764;DHT22;17497;51.476;7.770;2022-10-31T14:47:39;19.90;99.90
30764;DHT22;17497;51.476;7.770;2022-10-31T14:53:08;20.10;99.90
30764;DHT22;17497;51.476;7.770;2022-10-31T14:55:43;20.00;99.90
30764;DHT22;17497;51.476;7.770;2022-10-31T14:58:17;20.10;99.90
30764;DHT22;17497;51.476;7.770;2022-10-31T15:00:46;20.00;99.90
30764;DHT22;17497;51.476;7.770;2022-10-31T15:03:21;20.00;99.90
30764;DHT22;17497;51.476;7.770;2022-10-31T15:05:52;19.90;99.90
30764;DHT22;17497;51.476;7.770;2022-10-31T15:08:31;19.80;99.90
30764;DHT22;17497;51.476;7.770;2022-10-31T15:10:58;19.70;99.90
30764;DHT22;17497;51.476;7.770;2022-10-31T15:13:28;19.70;99.90
30764;DHT22;17497;51.476;7.770;2022-10-31T15:15:56;19.60;99.90
30764;DHT22;17497;51.476;7.770;2022-10-31T15:18:27;19.50;99.90
30764;DHT22;17497;51.476;7.770;2022-10-31T15:20:56;19.30;99.90
30764;DHT22;17497;51.476;7.770;2022-10-31T15:23:25;19.30;99.90
30764;DHT22;17497;51.476;7.770;2022-10-31T15:26:03;19.30;99.90
30764;DHT22;17497;51.476;7.770;2022-10-31T15:28:31;19.50;99.90
30764;DHT22;17497;51.476;7.770;2022-10-31T15:31:00;19.50;99.90
30764;DHT22;17497;51.476;7.770;2022-10-31T15:33:40;19.60;99.90
30764;DHT22;17497;51.476;7.770;2022-10-31T15:36:24;19.60;99.90
30764;DHT22;17497;51.476;7.770;2022-10-31T15:38:57;19.50;99.90
30764;DHT22;17497;51.476;7.770;2022-10-31T15:41:34;19.40;99.90
30764;DHT22;17497;51.476;7.770;2022-10-31T15:44:16;19.30;99.90
30764;DHT22;17497;51.476;7.770;2022-10-31T15:47:15;19.20;99.90
30764;DHT22;17497;51.476;7.770;2022-10-31T15:49:54;19.00;99.90
30764;DHT22;17497;51.476;7.770;2022-10-31T15:55:03;18.90;99.90
30764;DHT22;17497;51.476;7.770;2022-10-31T15:57:31;18.80;99.90
30764;DHT22;17497;51.476;7.770;2022-10-31T15:59:58;18.70;99.90
30764;DHT22;17497;51.476;7.770;2022-10-31T16:02:27;18.60;99.90
30764;DHT22;17497;51.476;7.770;2022-10-31T16:04:57;18.60;99.90
30764;DHT22;17497;51.476;7.770;2022-10-31T16:07:25;18.60;99.90
30764;DHT22;17497;51.476;7.770;2022-10-31T16:10:00;18.40;99.90
30764;DHT22;17497;51.476;7.770;2022-10-31T16:12:41;18.30;99.90
30764;DHT22;17497;51.476;7.770;2022-10-31T16:15:16;18.30;99.90
30764;DHT22;17497;51.476;7.770;2022-10-31T16:17:49;18.30;99.90
30764;DHT22;17497;51.476;7.770;2022-10-31T16:20:27;18.30;99.90
30764;DHT22;17497;51.476;7.770;2022-10-31T16:22:56;18.20;99.90
30764;DHT22;17497;51.476;7.770;2022-10-31T16:25:33;18.20;99.90
30764;DHT22;17497;51.476;7.770;2022-10-31T16:28:13;18.20;99.90
30764;DHT22;17497;51.476;7.770;2022-10-31T16:30:45;18.00;99.90
30764;DHT22;17497;51.476;7.770;2022-10-31T16:33:21;18.00;99.90
30764;DHT22;17497;51.476;7.770;2022-10-31T16:35:49;17.90;99.90
30764;DHT22;17497;51.476;7.770;2022-10-31T16:38:21;17.80;99.90
30764;DHT22;17497;51.476;7.770;2022-10-31T16:40:49;17.80;99.90
30764;DHT22;17497;51.476;7.770;2022-10-31T16:43:18;17.70;99.90
30764;DHT22;17497;51.476;7.770;2022-10-31T16:45:47;17.70;99.90
30764;DHT22;17497;51.476;7.770;2022-10-31T16:48:19;17.70;99.90
30764;DHT22;17497;51.476;7.770;2022-10-31T16:50:48;17.70;99.90
30764;DHT22;17497;51.476;7.770;2022-10-31T16:53:15;17.70;99.90
30764;DHT22;17497;51.476;7.770;2022-10-31T16:55:56;17.60;99.90
30764;DHT22;17497;51.476;7.770;2022-10-31T16:58:35;17.60;99.90
30764;DHT22;17497;51.476;7.770;2022-10-31T17:01:04;17.60;99.90
30764;DHT22;17497;51.476;7.770;2022-10-31T17:03:33;17.60;99.90
30764;DHT22;17497;51.476;7.770;2022-10-31T17:06:01;17.60;99.90
30764;DHT22;17497;51.476;7.770;2022-10-31T17:08:30;17.50;99.90
30764;DHT22;17497;51.476;7.770;2022-10-31T17:10:57;17.50;99.90
30764;DHT22;17497;51.476;7.770;2022-10-31T17:13:30;17.60;99.90
30764;DHT22;17497;51.476;7.770;2022-10-31T17:16:00;17.50;99.90
30764;DHT22;17497;51.476;7.770;2022-10-31T17:18:27;17.50;99.90
30764;DHT22;17497;51.476;7.770;2022-10-31T17:20:59;17.50;99.90
30764;DHT22;17497;51.476;7.770;2022-10-31T17:23:27;17.40;99.90
30764;DHT22;17497;51.476;7.770;2022-10-31T17:25:55;17.40;99.90
30764;DHT22;17497;51.476;7.770;2022-10-31T17:28:22;17.40;99.90
30764;DHT22;17497;51.476;7.770;2022-10-31T17:30:48;17.40;99.90
30764;DHT22;17497;51.476;7.770;2022-10-31T17:33:16;17.40;99.90
30764;DHT22;17497;51.476;7.770;2022-10-31T17:35:43;17.40;99.90
30764;DHT22;17497;51.476;7.770;2022-10-31T17:38:12;17.50;99.90
30764;DHT22;17497;51.476;7.770;2022-10-31T17:40:40;17.50;99.90
30764;DHT22;17497;51.476;7.770;2022-10-31T17:43:09;17.50;99.90
30764;DHT22;17497;51.476;7.770;2022-10-31T17:45:38;17.60;99.90
30764;DHT22;17497;51.476;7.770;2022-10-31T17:48:06;17.50;99.90
30764;DHT22;17497;51.476;7.770;2022-10-31T17:50:35;17.40;99.90
30764;DHT22;17497;51.476;7.770;2022-10-31T17:53:02;17.30;99.90
30764;DHT22;17497;51.476;7.770;2022-10-31T17:55:30;17.30;99.90
30764;DHT22;17497;51.476;7.770;2022-10-31T17:58:03;17.20;99.90